Sea Raven — WDG6180 — position and weather

sailwx.info

Track history (hours):
 
Tides and Currents Weather Stations Pressure Air Temp Water Temp Dewpoint Dewpoint Depression Visibility Wind Speed Wind Dir Waves Ship Positions

Sea Raven

Owner: Kirby Offshore Marine, LLC, Staten Island, NY. More information available from US FCC via Universal Licensing System and Coast Guard Vessel Documentation Center.

Last reported at 2017-Nov-09 22:35 UTC. Time now 2017-Nov-23 00:19 UTC.
Position N 39°16' W 076°36'.
Warning: this ship's position is 13 days out of date.

Length 162 m; draft 3.1 m.

Type: Towing. MMSI: 338670000.

Date/timePositionNaut miles runAvg speedWind from/ knotsBaromVisibWave heightAir tempDewpointWater temp
2017-Nov-09 22:35N 39°16' W 076°36'0 0.0
2017-Nov-09 22:29N 39°16' W 076°36'0 0.0
2017-Nov-09 21:59N 39°16' W 076°36'0 0.0
2017-Nov-09 21:30N 39°16' W 076°36'0 0.0
2017-Nov-09 20:59N 39°16' W 076°36'0 0.0
2017-Nov-09 20:28N 39°16' W 076°36'0 0.0
2017-Nov-09 19:55N 39°16' W 076°36'0 0.0
2017-Nov-09 19:24N 39°16' W 076°36'0 0.0
2017-Nov-09 19:00N 39°16' W 076°36'0 0.0
2017-Nov-09 18:31N 39°16' W 076°36'0 0.0
2017-Nov-09 18:01N 39°16' W 076°36'0 0.0
2017-Nov-09 17:30N 39°16' W 076°36'0 0.0
2017-Nov-09 17:01N 39°16' W 076°36'0 0.0
2017-Nov-09 16:30N 39°16' W 076°36'0 0.0
2017-Nov-09 15:55N 39°16' W 076°36'0 0.0
2017-Nov-09 15:29N 39°16' W 076°36'0 0.0
2017-Nov-09 14:59N 39°16' W 076°36'0 0.0
2017-Nov-09 14:30N 39°16' W 076°36'0 0.0
2017-Nov-09 13:58N 39°16' W 076°36'0 0.0
2017-Nov-09 13:30N 39°16' W 076°36'0 0.0
2017-Nov-09 13:00N 39°16' W 076°36'0 0.0
2017-Nov-09 12:28N 39°16' W 076°36'0 0.0
2017-Nov-09 12:00N 39°16' W 076°36'0 0.0
2017-Nov-09 11:30N 39°16' W 076°36'0 0.0
2017-Nov-09 10:58N 39°16' W 076°36'0 0.0
2017-Nov-09 10:31N 39°16' W 076°36'0 0.0
2017-Nov-09 09:59N 39°16' W 076°36'0 0.0
2017-Nov-09 09:29N 39°16' W 076°36'0 0.0
2017-Nov-09 08:59N 39°16' W 076°36'0 0.0
2017-Nov-09 08:31N 39°16' W 076°36'0 0.0
2017-Nov-09 08:00N 39°16' W 076°36'0 0.0
2017-Nov-09 07:28N 39°16' W 076°36'0 0.0
2017-Nov-09 07:00N 39°16' W 076°36'0 0.0
2017-Nov-09 06:30N 39°16' W 076°36'0 0.0
2017-Nov-09 06:01N 39°16' W 076°36'0 0.0
2017-Nov-09 04:54N 39°16' W 076°36'0 0.0
2017-Nov-09 03:37N 39°16' W 076°36'0 0.0
2017-Nov-09 03:30N 39°16' W 076°36'0 0.0
2017-Nov-09 01:55N 39°16' W 076°36'0 0.0
2017-Nov-07 19:39N 39°16' W 076°36'0 0.4
2017-Nov-07 19:18N 39°16' W 076°36'0 0.0
2017-Nov-07 18:42N 39°16' W 076°36'0 0.0
2017-Nov-07 17:57N 39°16' W 076°36'0 0.0
2017-Nov-07 17:30N 39°16' W 076°36'0 0.1
2017-Nov-07 17:00N 39°16' W 076°36'1 2.7
2017-Nov-07 16:31N 39°15' W 076°34'5 9.0
2017-Nov-07 15:56N 39°12' W 076°30'4 9.3
2017-Nov-07 15:30N 39°10' W 076°25'8 9.5
2017-Nov-07 14:38N 39°02' W 076°23'1 9.4
2017-Nov-07 14:31N 39°00' W 076°23'5 9.3
2017-Nov-07 14:00N 38°56' W 076°23'4 9.0
2017-Nov-07 13:30N 38°51' W 076°25'1 2.8
2017-Nov-07 13:00N 38°50' W 076°25'1 2.8
2017-Nov-07 12:30N 38°49' W 076°26'1 2.7
2017-Nov-07 12:00N 38°47' W 076°26'1 2.7
2017-Nov-07 11:31N 38°46' W 076°26'2 3.0
2017-Nov-07 11:00N 38°44' W 076°26'2 3.9
2017-Nov-07 10:30N 38°42' W 076°26'5 9.3
2017-Nov-07 10:00N 38°38' W 076°26'4 9.1
2017-Nov-07 09:30N 38°33' W 076°27'6 9.1
2017-Nov-07 08:50N 38°28' W 076°24'4 9.1
2017-Nov-07 08:24N 38°24' W 076°21'4 9.0
2017-Nov-07 08:00N 38°21' W 076°19'4 8.9
2017-Nov-07 07:30N 38°17' W 076°17'5 8.9
2017-Nov-07 06:55N 38°12' W 076°15'4 8.9
2017-Nov-07 06:30N 38°08' W 076°14'4 8.9
2017-Nov-07 06:00N 38°04' W 076°14'8 9.0
2017-Nov-07 05:09N 37°57' W 076°11'13 8.5
2017-Nov-07 03:37N 37°43' W 076°10'1 9.0
2017-Nov-07 03:27N 37°42' W 076°10'4 8.6
2017-Nov-07 03:00N 37°38' W 076°08'4 9.0
2017-Nov-07 02:30N 37°35' W 076°04'4 8.6
2017-Nov-07 02:00N 37°31' W 076°03'4 8.4
2017-Nov-07 01:31N 37°27' W 076°05'4 7.7
2017-Nov-07 01:01N 37°23' W 076°06'4 7.7
2017-Nov-07 00:30N 37°19' W 076°06'10 7.8
2017-Nov-06 23:17N 37°10' W 076°10'2 7.6
2017-Nov-06 23:00N 37°08' W 076°09'8 7.2
2017-Nov-06 21:55N 37°02' W 076°03'2 5.9
2017-Nov-06 21:30N 36°60' W 076°02'3 6.2
2017-Nov-06 21:00N 36°58' W 076°05'510.0
2017-Nov-06 20:31N 36°59' W 076°11'8 0.4
2017-Nov-05 23:38N 36°57' W 076°21'0 0.3
2017-Nov-05 23:16N 36°58' W 076°21'0 0.1
2017-Nov-05 21:54N 36°58' W 076°21'0 0.0
2017-Nov-05 21:26N 36°58' W 076°21'0 0.0
2017-Nov-05 20:19N 36°58' W 076°21'0 0.0
2017-Nov-05 19:56N 36°58' W 076°21'0 0.0
2017-Nov-05 19:28N 36°58' W 076°21'0 0.0
2017-Nov-05 17:53N 36°58' W 076°21'0 0.1
2017-Nov-05 17:30N 36°58' W 076°21'0 0.1
2017-Nov-05 16:59N 36°58' W 076°21'0 0.0
2017-Nov-05 09:12N 36°58' W 076°21'0 0.1
2017-Nov-05 09:00N 36°58' W 076°21'0 0.1
2017-Nov-05 08:17N 36°58' W 076°21'0 0.0
2017-Nov-05 07:53N 36°58' W 076°21'0 0.0
2017-Nov-04 20:57N 36°57' W 076°21'0 0.1
2017-Nov-04 20:28N 36°57' W 076°21'0 0.0
2017-Nov-04 18:30N 36°58' W 076°21'0 0.0
2017-Nov-04 05:42N 36°57' W 076°21'0 0.1
2017-Nov-04 05:31N 36°57' W 076°21'0 0.0
2017-Nov-04 04:04N 36°58' W 076°21'0 0.1
2017-Nov-04 03:52N 36°58' W 076°21'0 0.1
2017-Nov-04 03:30N 36°58' W 076°21'0 0.0
2017-Nov-03 21:35N 36°58' W 076°21'0 0.1
2017-Nov-03 21:17N 36°58' W 076°21'0 0.0
2017-Nov-03 18:53N 36°58' W 076°21'0 0.0
2017-Nov-03 14:35N 36°58' W 076°21'0 0.1
2017-Nov-03 13:38N 36°57' W 076°21'0 0.0
2017-Nov-03 08:26N 36°57' W 076°21'0 0.1
2017-Nov-03 07:56N 36°58' W 076°21'0 0.0
2017-Nov-03 07:30N 36°58' W 076°21'0 0.1
2017-Nov-03 06:57N 36°58' W 076°21'0 0.0
2017-Nov-03 06:30N 36°58' W 076°21'0 0.0
2017-Nov-03 05:55N 36°58' W 076°21'0 0.0
2017-Nov-03 05:30N 36°58' W 076°21'0 0.0
2017-Nov-03 05:00N 36°58' W 076°21'0 0.0
2017-Nov-03 04:28N 36°58' W 076°21'0 0.0
2017-Nov-03 04:00N 36°58' W 076°21'0 0.1
2017-Nov-03 03:30N 36°58' W 076°21'0 0.1
2017-Nov-03 02:53N 36°58' W 076°21'0 0.0
2017-Nov-02 14:11N 36°58' W 076°21'0 0.2
2017-Nov-02 14:01N 36°57' W 076°21'0 0.0
2017-Nov-02 09:23N 36°57' W 076°21'0 0.0
2017-Nov-02 04:45N 36°58' W 076°21'0 0.1
2017-Nov-02 04:18N 36°58' W 076°21'0 0.0
2017-Nov-02 02:30N 36°58' W 076°21'0 0.0
2017-Nov-02 02:01N 36°58' W 076°21'0 0.0
2017-Nov-01 19:06N 36°57' W 076°21'0 0.1
2017-Nov-01 19:00N 36°58' W 076°21'147 4.8
2017-Oct-31 12:26N 34°30' W 076°13'4 9.4
2017-Oct-31 11:59N 34°28' W 076°17'  
Track history (hours):
 
Tides and Currents Weather Stations Pressure Air Temp Water Temp Dewpoint Dewpoint Depression Visibility Wind Speed Wind Dir Waves Ship Positions

Sea Raven

Owner: Kirby Offshore Marine, LLC, Staten Island, NY. More information available from US FCC via Universal Licensing System and Coast Guard Vessel Documentation Center.

Last reported at 2017-Nov-09 22:35 UTC. Time now 2017-Nov-23 00:19 UTC.
Position N 39°16' W 076°36'.
Warning: this ship's position is 13 days out of date.

Length 162 m; draft 3.1 m.

Type: Towing. MMSI: 338670000.

Date/timePositionNaut miles runAvg speedWind from/ knotsBaromVisibWave heightAir tempDewpointWater temp
2017-Nov-09 22:35N 39°16' W 076°36'0 0.0
2017-Nov-09 22:29N 39°16' W 076°36'0 0.0
2017-Nov-09 21:59N 39°16' W 076°36'0 0.0
2017-Nov-09 21:30N 39°16' W 076°36'0 0.0
2017-Nov-09 20:59N 39°16' W 076°36'0 0.0
2017-Nov-09 20:28N 39°16' W 076°36'0 0.0
2017-Nov-09 19:55N 39°16' W 076°36'0 0.0
2017-Nov-09 19:24N 39°16' W 076°36'0 0.0
2017-Nov-09 19:00N 39°16' W 076°36'0 0.0
2017-Nov-09 18:31N 39°16' W 076°36'0 0.0
2017-Nov-09 18:01N 39°16' W 076°36'0 0.0
2017-Nov-09 17:30N 39°16' W 076°36'0 0.0
2017-Nov-09 17:01N 39°16' W 076°36'0 0.0
2017-Nov-09 16:30N 39°16' W 076°36'0 0.0
2017-Nov-09 15:55N 39°16' W 076°36'0 0.0
2017-Nov-09 15:29N 39°16' W 076°36'0 0.0
2017-Nov-09 14:59N 39°16' W 076°36'0 0.0
2017-Nov-09 14:30N 39°16' W 076°36'0 0.0
2017-Nov-09 13:58N 39°16' W 076°36'0 0.0
2017-Nov-09 13:30N 39°16' W 076°36'0 0.0
2017-Nov-09 13:00N 39°16' W 076°36'0 0.0
2017-Nov-09 12:28N 39°16' W 076°36'0 0.0
2017-Nov-09 12:00N 39°16' W 076°36'0 0.0
2017-Nov-09 11:30N 39°16' W 076°36'0 0.0
2017-Nov-09 10:58N 39°16' W 076°36'0 0.0
2017-Nov-09 10:31N 39°16' W 076°36'0 0.0
2017-Nov-09 09:59N 39°16' W 076°36'0 0.0
2017-Nov-09 09:29N 39°16' W 076°36'0 0.0
2017-Nov-09 08:59N 39°16' W 076°36'0 0.0
2017-Nov-09 08:31N 39°16' W 076°36'0 0.0
2017-Nov-09 08:00N 39°16' W 076°36'0 0.0
2017-Nov-09 07:28N 39°16' W 076°36'0 0.0
2017-Nov-09 07:00N 39°16' W 076°36'0 0.0
2017-Nov-09 06:30N 39°16' W 076°36'0 0.0
2017-Nov-09 06:01N 39°16' W 076°36'0 0.0
2017-Nov-09 04:54N 39°16' W 076°36'0 0.0
2017-Nov-09 03:37N 39°16' W 076°36'0 0.0
2017-Nov-09 03:30N 39°16' W 076°36'0 0.0
2017-Nov-09 01:55N 39°16' W 076°36'0 0.0
2017-Nov-07 19:39N 39°16' W 076°36'0 0.4
2017-Nov-07 19:18N 39°16' W 076°36'0 0.0
2017-Nov-07 18:42N 39°16' W 076°36'0 0.0
2017-Nov-07 17:57N 39°16' W 076°36'0 0.0
2017-Nov-07 17:30N 39°16' W 076°36'0 0.1
2017-Nov-07 17:00N 39°16' W 076°36'1 2.7
2017-Nov-07 16:31N 39°15' W 076°34'5 9.0
2017-Nov-07 15:56N 39°12' W 076°30'4 9.3
2017-Nov-07 15:30N 39°10' W 076°25'8 9.5
2017-Nov-07 14:38N 39°02' W 076°23'1 9.4
2017-Nov-07 14:31N 39°00' W 076°23'5 9.3
2017-Nov-07 14:00N 38°56' W 076°23'4 9.0
2017-Nov-07 13:30N 38°51' W 076°25'1 2.8
2017-Nov-07 13:00N 38°50' W 076°25'1 2.8
2017-Nov-07 12:30N 38°49' W 076°26'1 2.7
2017-Nov-07 12:00N 38°47' W 076°26'1 2.7
2017-Nov-07 11:31N 38°46' W 076°26'2 3.0
2017-Nov-07 11:00N 38°44' W 076°26'2 3.9
2017-Nov-07 10:30N 38°42' W 076°26'5 9.3
2017-Nov-07 10:00N 38°38' W 076°26'4 9.1
2017-Nov-07 09:30N 38°33' W 076°27'6 9.1
2017-Nov-07 08:50N 38°28' W 076°24'4 9.1
2017-Nov-07 08:24N 38°24' W 076°21'4 9.0
2017-Nov-07 08:00N 38°21' W 076°19'4 8.9
2017-Nov-07 07:30N 38°17' W 076°17'5 8.9
2017-Nov-07 06:55N 38°12' W 076°15'4 8.9
2017-Nov-07 06:30N 38°08' W 076°14'4 8.9
2017-Nov-07 06:00N 38°04' W 076°14'8 9.0
2017-Nov-07 05:09N 37°57' W 076°11'13 8.5
2017-Nov-07 03:37N 37°43' W 076°10'1 9.0
2017-Nov-07 03:27N 37°42' W 076°10'4 8.6
2017-Nov-07 03:00N 37°38' W 076°08'4 9.0
2017-Nov-07 02:30N 37°35' W 076°04'4 8.6
2017-Nov-07 02:00N 37°31' W 076°03'4 8.4
2017-Nov-07 01:31N 37°27' W 076°05'4 7.7
2017-Nov-07 01:01N 37°23' W 076°06'4 7.7
2017-Nov-07 00:30N 37°19' W 076°06'10 7.8
2017-Nov-06 23:17N 37°10' W 076°10'2 7.6
2017-Nov-06 23:00N 37°08' W 076°09'8 7.2
2017-Nov-06 21:55N 37°02' W 076°03'2 5.9
2017-Nov-06 21:30N 36°60' W 076°02'3 6.2
2017-Nov-06 21:00N 36°58' W 076°05'510.0
2017-Nov-06 20:31N 36°59' W 076°11'8 0.4
2017-Nov-05 23:38N 36°57' W 076°21'0 0.3
2017-Nov-05 23:16N 36°58' W 076°21'0 0.1
2017-Nov-05 21:54N 36°58' W 076°21'0 0.0
2017-Nov-05 21:26N 36°58' W 076°21'0 0.0
2017-Nov-05 20:19N 36°58' W 076°21'0 0.0
2017-Nov-05 19:56N 36°58' W 076°21'0 0.0
2017-Nov-05 19:28N 36°58' W 076°21'0 0.0
2017-Nov-05 17:53N 36°58' W 076°21'0 0.1
2017-Nov-05 17:30N 36°58' W 076°21'0 0.1
2017-Nov-05 16:59N 36°58' W 076°21'0 0.0
2017-Nov-05 09:12N 36°58' W 076°21'0 0.1
2017-Nov-05 09:00N 36°58' W 076°21'0 0.1
2017-Nov-05 08:17N 36°58' W 076°21'0 0.0
2017-Nov-05 07:53N 36°58' W 076°21'0 0.0
2017-Nov-04 20:57N 36°57' W 076°21'0 0.1
2017-Nov-04 20:28N 36°57' W 076°21'0 0.0
2017-Nov-04 18:30N 36°58' W 076°21'0 0.0
2017-Nov-04 05:42N 36°57' W 076°21'0 0.1
2017-Nov-04 05:31N 36°57' W 076°21'0 0.0
2017-Nov-04 04:04N 36°58' W 076°21'0 0.1
2017-Nov-04 03:52N 36°58' W 076°21'0 0.1
2017-Nov-04 03:30N 36°58' W 076°21'0 0.0
2017-Nov-03 21:35N 36°58' W 076°21'0 0.1
2017-Nov-03 21:17N 36°58' W 076°21'0 0.0
2017-Nov-03 18:53N 36°58' W 076°21'0 0.0
2017-Nov-03 14:35N 36°58' W 076°21'0 0.1
2017-Nov-03 13:38N 36°57' W 076°21'0 0.0
2017-Nov-03 08:26N 36°57' W 076°21'0 0.1
2017-Nov-03 07:56N 36°58' W 076°21'0 0.0
2017-Nov-03 07:30N 36°58' W 076°21'0 0.1
2017-Nov-03 06:57N 36°58' W 076°21'0 0.0
2017-Nov-03 06:30N 36°58' W 076°21'0 0.0
2017-Nov-03 05:55N 36°58' W 076°21'0 0.0
2017-Nov-03 05:30N 36°58' W 076°21'0 0.0
2017-Nov-03 05:00N 36°58' W 076°21'0 0.0
2017-Nov-03 04:28N 36°58' W 076°21'0 0.0
2017-Nov-03 04:00N 36°58' W 076°21'0 0.1
2017-Nov-03 03:30N 36°58' W 076°21'0 0.1
2017-Nov-03 02:53N 36°58' W 076°21'0 0.0
2017-Nov-02 14:11N 36°58' W 076°21'0 0.2
2017-Nov-02 14:01N 36°57' W 076°21'0 0.0
2017-Nov-02 09:23N 36°57' W 076°21'0 0.0
2017-Nov-02 04:45N 36°58' W 076°21'0 0.1
2017-Nov-02 04:18N 36°58' W 076°21'0 0.0
2017-Nov-02 02:30N 36°58' W 076°21'0 0.0
2017-Nov-02 02:01N 36°58' W 076°21'0 0.0
2017-Nov-01 19:06N 36°57' W 076°21'0 0.1
2017-Nov-01 19:00N 36°58' W 076°21'147 4.8
2017-Oct-31 12:26N 34°30' W 076°13'4 9.4
2017-Oct-31 11:59N 34°28' W 076°17'  

Dump ship's entire track history